createdAt,value
2022-10-09T00:05:13.909Z,11.01
2022-10-09T00:10:40.886Z,11.01
2022-10-09T00:16:04.887Z,10.97
2022-10-09T00:21:32.288Z,11.02
2022-10-09T00:26:53.967Z,10.96
2022-10-09T00:32:16.164Z,11.03
2022-10-09T00:37:37.873Z,10.96
2022-10-09T00:42:59.891Z,10.91
2022-10-09T00:48:22.618Z,10.87
2022-10-09T00:53:44.338Z,10.83
2022-10-09T00:59:06.969Z,10.76
2022-10-09T01:04:28.681Z,10.66
2022-10-09T01:09:58.893Z,10.47
2022-10-09T01:15:30.434Z,10.53
2022-10-09T01:21:05.059Z,10.57
2022-10-09T01:26:50.799Z,10.47
2022-10-09T01:32:17.505Z,10.49
2022-10-09T01:37:42.216Z,10.59
2022-10-09T01:43:04.222Z,10.37
2022-10-09T01:48:26.668Z,10.36
2022-10-09T01:53:51.113Z,10.40
2022-10-09T01:59:18.615Z,10.35
2022-10-09T02:04:43.536Z,10.19
2022-10-09T02:10:06.602Z,10.17
2022-10-09T02:15:35.818Z,10.08
2022-10-09T02:21:05.591Z,9.87
2022-10-09T02:26:27.569Z,10.08
2022-10-09T02:31:49.396Z,10.01
2022-10-09T02:37:11.140Z,10.09
2022-10-09T02:42:32.830Z,9.97
2022-10-09T02:47:54.581Z,9.79
2022-10-09T02:53:16.362Z,9.90
2022-10-09T02:58:39.651Z,9.74
2022-10-09T03:04:01.514Z,9.54
2022-10-09T03:09:23.540Z,9.66
2022-10-09T03:14:45.227Z,9.75
2022-10-09T03:20:07.812Z,9.80
2022-10-09T03:25:29.708Z,9.66
2022-10-09T03:30:51.872Z,9.71
2022-10-09T03:36:13.607Z,9.44
2022-10-09T03:41:35.320Z,9.40
2022-10-09T03:46:57.091Z,9.44
2022-10-09T03:52:18.795Z,9.48
2022-10-09T03:57:40.492Z,9.47
2022-10-09T04:03:02.356Z,9.34
2022-10-09T04:08:24.122Z,9.14
2022-10-09T04:13:45.900Z,9.16
2022-10-09T04:19:07.620Z,9.32
2022-10-09T04:24:29.439Z,9.26
2022-10-09T04:29:51.137Z,9.35
2022-10-09T04:35:12.841Z,9.16
2022-10-09T04:40:34.533Z,9.31
2022-10-09T04:45:56.335Z,9.18
2022-10-09T04:51:18.681Z,9.06
2022-10-09T04:56:40.458Z,9.13
2022-10-09T05:02:02.234Z,8.99
2022-10-09T05:07:24.852Z,8.88
2022-10-09T05:12:46.862Z,8.73
2022-10-09T05:18:08.769Z,8.90
2022-10-09T05:23:32.725Z,8.69
2022-10-09T05:28:54.570Z,8.72
2022-10-09T05:34:16.448Z,8.92
2022-10-09T05:39:39.343Z,8.82
2022-10-09T05:45:01.038Z,8.94
2022-10-09T05:50:22.868Z,8.95
2022-10-09T05:55:44.557Z,8.91
2022-10-09T06:01:06.398Z,8.84
2022-10-09T06:06:31.477Z,8.90
2022-10-09T06:11:54.647Z,8.59
2022-10-09T06:17:16.482Z,8.81
2022-10-09T06:22:38.193Z,8.79
2022-10-09T06:27:59.964Z,8.77
2022-10-09T06:33:21.684Z,8.97
2022-10-09T06:38:44.289Z,8.82
2022-10-09T06:44:16.071Z,8.95
2022-10-09T06:49:38.480Z,8.92
2022-10-09T06:55:01.353Z,8.65
2022-10-09T07:00:23.066Z,8.84
2022-10-09T07:05:44.799Z,8.82
2022-10-09T07:11:15.398Z,8.75
2022-10-09T07:16:40.362Z,9.00
2022-10-09T07:22:02.061Z,8.98
2022-10-09T07:27:23.878Z,9.11
2022-10-09T07:32:45.881Z,9.31
2022-10-09T07:38:08.188Z,9.47
2022-10-09T07:43:31.386Z,9.57
2022-10-09T07:48:53.486Z,9.63
2022-10-09T07:54:15.254Z,9.67
2022-10-09T07:59:36.953Z,9.67
2022-10-09T08:04:58.644Z,9.80
2022-10-09T08:10:20.720Z,9.94
2022-10-09T08:15:44.046Z,10.02
2022-10-09T08:21:12.328Z,10.12
2022-10-09T08:26:34.134Z,10.30
2022-10-09T08:31:55.879Z,10.37
2022-10-09T08:37:17.587Z,10.55
2022-10-09T08:42:47.882Z,10.61
2022-10-09T08:48:18.958Z,10.73
2022-10-09T08:53:50.212Z,10.83
2022-10-09T08:59:12.276Z,11.11
2022-10-09T09:04:58.549Z,11.35
2022-10-09T09:10:37.253Z,11.56
2022-10-09T09:16:15.610Z,11.83
2022-10-09T09:21:53.906Z,11.88
2022-10-09T09:27:28.725Z,11.92
2022-10-09T09:33:11.805Z,12.20
2022-10-09T09:38:33.633Z,12.38
2022-10-09T09:43:55.365Z,12.42
2022-10-09T09:49:23.459Z,12.53
2022-10-09T09:54:48.853Z,12.60
2022-10-09T10:00:16.635Z,12.86
2022-10-09T10:05:39.682Z,12.97
2022-10-09T10:11:05.232Z,13.05
2022-10-09T10:16:29.156Z,13.20
2022-10-09T10:21:59.437Z,13.28
2022-10-09T10:27:34.949Z,13.42
2022-10-09T10:33:14.857Z,13.45
2022-10-09T10:38:55.239Z,13.51
2022-10-09T10:44:33.329Z,13.63
2022-10-09T10:49:55.516Z,13.77
2022-10-09T10:55:26.209Z,13.92
2022-10-09T11:00:55.629Z,14.10
2022-10-09T11:06:37.981Z,14.22
2022-10-09T11:12:19.627Z,14.33
2022-10-09T11:18:04.569Z,14.33
2022-10-09T11:23:49.853Z,14.43
2022-10-09T11:29:21.938Z,14.58
2022-10-09T11:35:11.867Z,14.64
2022-10-09T11:40:38.402Z,14.76
2022-10-09T11:46:21.686Z,14.84
2022-10-09T11:52:02.967Z,14.94
2022-10-09T11:57:29.721Z,15.10
2022-10-09T12:02:59.888Z,15.29
2022-10-09T12:08:27.201Z,15.38
2022-10-09T12:13:52.692Z,15.52
2022-10-09T12:19:38.049Z,15.63
2022-10-09T12:25:06.339Z,15.69
2022-10-09T12:30:37.018Z,15.75
2022-10-09T12:36:31.010Z,15.86
2022-10-09T12:41:57.196Z,15.85
2022-10-09T12:47:23.380Z,15.83
2022-10-09T12:53:06.389Z,15.84
2022-10-09T12:58:36.693Z,15.83
2022-10-09T13:04:03.429Z,15.86
2022-10-09T13:09:37.564Z,15.86
2022-10-09T13:15:05.986Z,15.86
2022-10-09T13:20:32.543Z,15.89
2022-10-09T13:25:54.526Z,15.90
2022-10-09T13:31:18.425Z,15.95
2022-10-09T13:36:40.443Z,15.96
2022-10-09T13:42:02.968Z,15.92
2022-10-09T13:47:25.000Z,15.93
2022-10-09T13:52:46.834Z,15.95
2022-10-09T13:58:08.551Z,16.00
2022-10-09T14:03:30.264Z,16.00
2022-10-09T14:08:52.722Z,15.96
2022-10-09T14:14:14.478Z,15.98
2022-10-09T14:19:36.203Z,15.99
2022-10-09T14:24:57.932Z,15.99
2022-10-09T14:30:19.795Z,15.98
2022-10-09T14:35:41.595Z,15.97
2022-10-09T14:41:03.709Z,15.99
2022-10-09T14:46:27.422Z,16.04
2022-10-09T14:51:49.110Z,16.03
2022-10-09T14:57:10.818Z,16.04
2022-10-09T15:02:32.571Z,16.03
2022-10-09T15:07:54.326Z,16.03
2022-10-09T15:13:16.054Z,16.01
2022-10-09T15:18:37.773Z,15.97
2022-10-09T15:24:01.142Z,15.94
2022-10-09T15:29:23.283Z,15.90
2022-10-09T15:34:45.025Z,15.84
2022-10-09T15:40:07.378Z,15.80
2022-10-09T15:45:29.172Z,15.73
2022-10-09T15:50:53.545Z,15.72
2022-10-09T15:56:18.541Z,15.67
2022-10-09T16:01:40.366Z,15.58
2022-10-09T16:07:02.201Z,15.52
2022-10-09T16:12:23.931Z,15.49
2022-10-09T16:17:45.748Z,15.33
2022-10-09T16:23:08.730Z,15.25
2022-10-09T16:28:31.119Z,15.18
2022-10-09T16:33:53.086Z,15.13
2022-10-09T16:39:14.881Z,15.05
2022-10-09T16:44:36.606Z,14.85
2022-10-09T16:49:58.348Z,14.71
2022-10-09T16:55:20.182Z,14.62
2022-10-09T17:00:41.945Z,14.52
2022-10-09T17:06:08.151Z,14.41
2022-10-09T17:11:30.539Z,14.29
2022-10-09T17:16:52.286Z,14.26
2022-10-09T17:22:14.304Z,14.17
2022-10-09T17:27:36.083Z,14.17
2022-10-09T17:32:58.357Z,14.02
2022-10-09T17:38:20.093Z,13.96
2022-10-09T17:43:41.865Z,13.79
2022-10-09T17:49:04.155Z,13.73
2022-10-09T17:54:26.038Z,13.53
2022-10-09T17:59:47.786Z,13.52
2022-10-09T18:05:09.557Z,13.50
2022-10-09T18:10:31.607Z,13.46
2022-10-09T18:15:53.745Z,13.47
2022-10-09T18:21:17.136Z,13.40
2022-10-09T18:26:39.796Z,13.37
2022-10-09T18:32:01.506Z,13.35
2022-10-09T18:37:23.882Z,13.32
2022-10-09T18:42:45.618Z,13.25
2022-10-09T18:48:08.532Z,13.15
2022-10-09T18:53:31.894Z,13.23
2022-10-09T18:58:53.930Z,13.19
2022-10-09T19:04:15.960Z,13.09
2022-10-09T19:09:37.721Z,13.01
2022-10-09T19:14:59.440Z,13.03
2022-10-09T19:20:21.218Z,13.02
2022-10-09T19:25:51.187Z,12.90
2022-10-09T19:31:14.004Z,12.86
2022-10-09T19:36:36.815Z,12.85
2022-10-09T19:41:58.686Z,12.78
2022-10-09T19:47:21.702Z,12.70
2022-10-09T19:52:46.797Z,12.49
2022-10-09T19:58:09.406Z,12.40
2022-10-09T20:03:31.146Z,12.40
2022-10-09T20:08:52.992Z,12.38
2022-10-09T20:14:14.766Z,12.42
2022-10-09T20:19:36.591Z,12.47
2022-10-09T20:24:58.312Z,12.56
2022-10-09T20:30:20.052Z,12.65
2022-10-09T20:35:43.173Z,12.67
2022-10-09T20:41:07.429Z,12.74
2022-10-09T20:46:31.478Z,13.03
2022-10-09T20:51:53.250Z,13.22
2022-10-09T20:57:15.079Z,13.38
2022-10-09T21:02:36.833Z,13.40
2022-10-09T21:07:58.548Z,13.36
2022-10-09T21:13:20.375Z,13.39
2022-10-09T21:18:42.098Z,13.38
2022-10-09T21:24:04.112Z,13.39
2022-10-09T21:29:27.003Z,13.43
2022-10-09T21:34:50.450Z,13.39
2022-10-09T21:40:12.142Z,13.40
2022-10-09T21:45:33.905Z,13.41
2022-10-09T21:50:56.689Z,13.34
2022-10-09T21:56:18.468Z,13.36
2022-10-09T22:01:40.282Z,13.36
2022-10-09T22:07:02.024Z,13.31
2022-10-09T22:12:23.797Z,13.31
2022-10-09T22:17:45.532Z,13.32
2022-10-09T22:23:08.303Z,13.25
2022-10-09T22:28:30.503Z,13.17
2022-10-09T22:34:01.957Z,13.11
2022-10-09T22:39:23.705Z,12.87
2022-10-09T22:44:45.447Z,13.00
2022-10-09T22:50:07.648Z,13.00
2022-10-09T22:55:29.338Z,12.91
2022-10-09T23:00:51.621Z,12.56
2022-10-09T23:06:16.841Z,12.58
2022-10-09T23:11:38.633Z,12.63
2022-10-09T23:17:00.394Z,12.72
2022-10-09T23:22:22.078Z,12.68
2022-10-09T23:27:43.770Z,12.68
2022-10-09T23:33:05.634Z,12.66
2022-10-09T23:38:27.385Z,12.64
2022-10-09T23:43:50.121Z,12.63
2022-10-09T23:49:11.918Z,12.64
2022-10-09T23:54:33.631Z,12.68
2022-10-09T23:59:55.410Z,12.61
